Florinea, Brazil
Current Conditions -  °F | °C
As of 12:00 PM on Wednesday 26 Nov 2014 (Local Time) from SBLO Reporting Station
Light Rain Light Rain  
Wind Chill: 23°   Ceiling: 4000
Heat Index: 23°   Visibility: 2.5mi
Dew Point: 22°   Wind: 3mph
Humidity: 94%   Direction: 290°WNW
Pressure: 29.85"   Gusts: NA
Location:  22.9°S, 50.73°W
Report Text: SBLO 261400Z 29003KT 4000 -RA FEW004 SCT018 BKN040 23/22 Q1011
Loading
Personal Weather Stations






























Interactive Weather Map New forecast layout! Learn more

10-Day Weather Forecast

Advertisements
Track Severe Weather on mobile